createdAt,value
2019-03-20T00:00:19.932Z,97392.54
2019-03-20T00:02:48.917Z,97394.87
2019-03-20T00:05:16.256Z,97401.81
2019-03-20T00:07:43.310Z,97400.56
2019-03-20T00:10:10.331Z,97406.39
2019-03-20T00:12:38.455Z,97399.89
2019-03-20T00:15:05.485Z,97402.44
2019-03-20T00:17:32.843Z,97407.69
2019-03-20T00:19:59.875Z,97408.56
2019-03-20T00:22:27.173Z,97412.56
2019-03-20T00:24:54.466Z,97410.89
2019-03-20T00:27:21.760Z,97408.53
2019-03-20T00:29:48.869Z,97405.95
2019-03-20T00:32:15.915Z,97410.48
2019-03-20T00:34:43.196Z,97413.27
2019-03-20T00:37:10.313Z,97406.30
2019-03-20T00:39:37.422Z,97409.19
2019-03-20T00:42:04.727Z,97408.64
2019-03-20T00:44:32.009Z,97407.12
2019-03-20T00:46:59.308Z,97413.61
2019-03-20T00:49:26.663Z,97409.14
2019-03-20T00:51:53.951Z,97406.19
2019-03-20T00:54:20.985Z,97409.45
2019-03-20T00:56:48.030Z,97414.52
2019-03-20T00:59:15.061Z,97403.41
2019-03-20T01:01:42.364Z,97412.71
2019-03-20T01:04:09.399Z,97411.52
2019-03-20T01:06:36.445Z,97415.47
2019-03-20T01:09:03.821Z,97410.08
2019-03-20T01:11:31.932Z,97404.50
2019-03-20T01:13:59.209Z,97404.97
2019-03-20T01:16:26.264Z,97405.12
2019-03-20T01:18:53.545Z,97403.39
2019-03-20T01:21:21.563Z,97404.68
2019-03-20T01:23:48.594Z,97398.92
2019-03-20T01:26:15.636Z,97396.64
2019-03-20T01:28:42.671Z,97391.72
2019-03-20T01:31:09.704Z,97395.27
2019-03-20T01:33:36.754Z,97392.39
2019-03-20T01:36:04.032Z,97389.14
2019-03-20T01:38:31.103Z,97389.77
2019-03-20T01:40:58.134Z,97390.98
2019-03-20T01:43:25.175Z,97394.00
2019-03-20T01:45:52.469Z,97399.59
2019-03-20T01:48:19.516Z,97405.57
2019-03-20T01:50:46.548Z,97401.27
2019-03-20T01:53:13.852Z,97407.97
2019-03-20T01:55:41.131Z,97405.70
2019-03-20T01:58:08.426Z,97401.02
2019-03-20T02:00:35.697Z,97399.98
2019-03-20T02:03:03.008Z,97397.77
2019-03-20T02:05:35.950Z,97395.63
2019-03-20T02:07:59.092Z,97402.86
2019-03-20T02:10:26.381Z,97395.57
2019-03-20T02:12:53.429Z,97398.28
2019-03-20T02:15:20.704Z,97390.19
2019-03-20T02:17:47.995Z,97396.09
2019-03-20T02:20:15.289Z,97392.17
2019-03-20T02:22:42.409Z,97398.59
2019-03-20T02:25:09.439Z,97400.09
2019-03-20T02:27:36.722Z,97395.68
2019-03-20T02:30:04.027Z,97392.20
2019-03-20T02:32:32.407Z,97391.58
2019-03-20T02:34:59.686Z,97391.41
2019-03-20T02:37:26.730Z,97398.41
2019-03-20T02:39:53.779Z,97393.80
2019-03-20T02:42:20.813Z,97392.58
2019-03-20T02:44:47.926Z,97398.48
2019-03-20T02:47:14.987Z,97396.50
2019-03-20T02:49:42.255Z,97405.55
2019-03-20T02:52:09.286Z,97406.91
2019-03-20T02:54:36.575Z,97405.62
2019-03-20T02:57:03.615Z,97407.67
2019-03-20T02:59:30.696Z,97417.42
2019-03-20T03:01:58.926Z,97414.02
2019-03-20T03:04:25.997Z,97411.52
2019-03-20T03:06:53.020Z,97416.66
2019-03-20T03:09:20.345Z,97413.19
2019-03-20T03:11:47.641Z,97410.10
2019-03-20T03:14:15.024Z,97413.95
2019-03-20T03:16:42.381Z,97410.55
2019-03-20T03:19:09.438Z,97408.05
2019-03-20T03:21:36.735Z,97406.84
2019-03-20T03:24:03.791Z,97401.63
2019-03-20T03:26:31.183Z,97409.34
2019-03-20T03:28:58.560Z,97407.48
2019-03-20T03:31:25.904Z,97408.14
2019-03-20T03:33:53.251Z,97410.01
2019-03-20T03:36:21.905Z,97412.08
2019-03-20T03:38:50.623Z,97418.92
2019-03-20T03:41:17.973Z,97413.66
2019-03-20T03:43:45.028Z,97408.40
2019-03-20T03:46:12.070Z,97415.00
2019-03-20T03:48:39.424Z,97416.64
2019-03-20T03:51:06.467Z,97423.82
2019-03-20T03:53:33.602Z,97426.51
2019-03-20T03:56:00.884Z,97428.05
2019-03-20T03:58:28.246Z,97424.33
2019-03-20T04:00:55.514Z,97424.26
2019-03-20T04:03:22.865Z,97434.20
2019-03-20T04:05:49.905Z,97434.56
2019-03-20T04:08:17.241Z,97435.44
2019-03-20T04:10:44.298Z,97432.47
2019-03-20T04:13:11.332Z,97430.28
2019-03-20T04:15:38.721Z,97434.91
2019-03-20T04:18:06.072Z,97445.95
2019-03-20T04:20:33.409Z,97444.80
2019-03-20T04:23:00.792Z,97452.19
2019-03-20T04:25:28.135Z,97444.99
2019-03-20T04:27:55.432Z,97443.41
2019-03-20T04:30:22.471Z,97441.81
2019-03-20T04:32:49.503Z,97444.05
2019-03-20T04:35:16.840Z,97437.73
2019-03-20T04:37:44.203Z,97445.20
2019-03-20T04:40:12.684Z,97449.52
2019-03-20T04:42:40.045Z,97445.30
2019-03-20T04:45:08.216Z,97451.08
2019-03-20T04:47:35.549Z,97458.13
2019-03-20T04:50:02.899Z,97457.80
2019-03-20T04:52:29.943Z,97464.54
2019-03-20T04:54:56.995Z,97463.00
2019-03-20T04:57:24.361Z,97470.27
2019-03-20T04:59:51.401Z,97465.97
2019-03-20T05:02:18.752Z,97470.72
2019-03-20T05:04:46.110Z,97472.70
2019-03-20T05:07:13.150Z,97472.97
2019-03-20T05:09:40.207Z,97467.77
2019-03-20T05:12:07.557Z,97472.25
2019-03-20T05:14:34.611Z,97470.58
2019-03-20T05:17:01.681Z,97485.38
2019-03-20T05:19:28.909Z,97485.78
2019-03-20T05:21:55.964Z,97491.17
2019-03-20T05:24:23.013Z,97492.30
2019-03-20T05:26:50.101Z,97498.22
2019-03-20T05:29:17.160Z,97498.48
2019-03-20T05:31:45.282Z,97514.41
2019-03-20T05:34:12.319Z,97514.09
2019-03-20T05:36:39.693Z,97514.09
2019-03-20T05:39:06.739Z,97518.71
2019-03-20T05:41:33.791Z,97510.55
2019-03-20T05:44:02.282Z,97512.60
2019-03-20T05:46:29.341Z,97508.61
2019-03-20T05:48:56.380Z,97518.44
2019-03-20T05:51:23.441Z,97519.88
2019-03-20T05:53:50.482Z,97516.05
2019-03-20T05:56:17.803Z,97517.73
2019-03-20T05:58:45.154Z,97527.88
2019-03-20T06:01:12.512Z,97524.77
2019-03-20T06:03:39.543Z,97523.40
2019-03-20T06:06:06.590Z,97528.09
2019-03-20T06:08:34.607Z,97531.14
2019-03-20T06:11:01.739Z,97529.66
2019-03-20T06:13:28.781Z,97529.73
2019-03-20T06:15:56.124Z,97522.09
2019-03-20T06:18:23.211Z,97519.69
2019-03-20T06:20:50.531Z,97515.39
2019-03-20T06:23:17.568Z,97519.27
2019-03-20T06:25:44.995Z,97519.81
2019-03-20T06:28:11.969Z,97528.68
2019-03-20T06:30:39.353Z,97524.02
2019-03-20T06:33:06.411Z,97519.44
2019-03-20T06:35:33.744Z,97523.48
2019-03-20T06:38:00.808Z,97523.57
2019-03-20T06:40:27.854Z,97522.43
2019-03-20T06:42:55.495Z,97531.93
2019-03-20T06:45:22.974Z,97538.98
2019-03-20T06:47:50.332Z,97540.81
2019-03-20T06:50:17.373Z,97535.48
2019-03-20T06:52:44.713Z,97536.06
2019-03-20T06:55:11.767Z,97541.34
2019-03-20T06:57:38.811Z,97544.47
2019-03-20T07:00:06.184Z,97541.27
2019-03-20T07:02:33.520Z,97558.09
2019-03-20T07:05:00.859Z,97555.36
2019-03-20T07:07:27.921Z,97553.87
2019-03-20T07:09:54.958Z,97551.30
2019-03-20T07:12:22.344Z,97550.80
2019-03-20T07:14:49.459Z,97558.29
2019-03-20T07:17:16.832Z,97561.80
2019-03-20T07:19:44.187Z,97567.08
2019-03-20T07:22:11.545Z,97574.28
2019-03-20T07:24:38.598Z,97576.42
2019-03-20T07:27:05.653Z,97577.27
2019-03-20T07:29:32.995Z,97574.95
2019-03-20T07:32:00.056Z,97580.30
2019-03-20T07:34:27.417Z,97580.29
2019-03-20T07:36:54.751Z,97579.64
2019-03-20T07:39:22.122Z,97585.20
2019-03-20T07:41:49.174Z,97583.69
2019-03-20T07:44:16.210Z,97584.46
2019-03-20T07:46:43.573Z,97595.75
2019-03-20T07:49:10.619Z,97592.92
2019-03-20T07:51:37.958Z,97592.89
2019-03-20T07:54:05.010Z,97596.03
2019-03-20T07:56:32.396Z,97599.08
2019-03-20T07:58:59.451Z,97593.93
2019-03-20T08:01:26.770Z,97595.01
2019-03-20T08:03:53.819Z,97588.99
2019-03-20T08:06:22.216Z,97599.01
2019-03-20T08:08:49.652Z,97596.28
2019-03-20T08:11:17.008Z,97598.43
2019-03-20T08:13:44.057Z,97602.06
2019-03-20T08:16:12.167Z,97605.11
2019-03-20T08:18:39.231Z,97608.27
2019-03-20T08:21:06.546Z,97610.95
2019-03-20T08:23:33.885Z,97599.66
2019-03-20T08:26:00.928Z,97606.97
2019-03-20T08:28:27.977Z,97613.33
2019-03-20T08:30:55.335Z,97618.41
2019-03-20T08:33:22.628Z,97617.15
2019-03-20T08:35:49.960Z,97612.33
2019-03-20T08:38:18.830Z,97605.05
2019-03-20T08:40:46.413Z,97615.52
2019-03-20T08:43:13.877Z,97616.06
2019-03-20T08:45:40.952Z,97621.85
2019-03-20T08:48:08.410Z,97623.03
2019-03-20T08:50:35.481Z,97620.11
2019-03-20T08:53:02.529Z,97612.94
2019-03-20T08:55:29.965Z,97619.38
2019-03-20T09:00:42.569Z,97619.77
2019-03-20T09:03:09.999Z,97616.66
2019-03-20T09:05:37.291Z,97615.34
2019-03-20T09:08:04.379Z,97625.59
2019-03-20T09:10:31.657Z,97633.02
2019-03-20T09:12:59.036Z,97635.12
2019-03-20T09:15:26.392Z,97630.37
2019-03-20T09:17:54.763Z,97627.54
2019-03-20T09:20:22.038Z,97629.16
2019-03-20T09:22:49.081Z,97632.75
2019-03-20T09:25:16.395Z,97635.64
2019-03-20T09:27:43.681Z,97630.42
2019-03-20T09:30:11.002Z,97635.61
2019-03-20T09:32:38.044Z,97638.17
2019-03-20T09:35:07.037Z,97640.10
2019-03-20T09:37:35.628Z,97640.92
2019-03-20T09:40:02.988Z,97637.33
2019-03-20T09:42:30.029Z,97634.57
2019-03-20T09:44:57.392Z,97637.27
2019-03-20T09:47:24.437Z,97638.84
2019-03-20T09:49:51.790Z,97640.34
2019-03-20T09:52:19.073Z,97641.41
2019-03-20T09:54:46.417Z,97639.89
2019-03-20T09:57:13.526Z,97643.70
2019-03-20T09:59:40.578Z,97640.77
2019-03-20T10:02:07.952Z,97640.95
2019-03-20T10:04:35.306Z,97645.70
2019-03-20T10:07:02.661Z,97646.02
2019-03-20T10:09:29.725Z,97642.80
2019-03-20T10:11:57.586Z,97650.95
2019-03-20T10:14:25.089Z,97638.17
2019-03-20T10:16:52.393Z,97637.98
2019-03-20T10:19:19.487Z,97641.05
2019-03-20T10:21:46.793Z,97634.33
2019-03-20T10:24:14.153Z,97640.77
2019-03-20T10:26:41.196Z,97641.38
2019-03-20T10:29:08.263Z,97638.97
2019-03-20T10:31:36.377Z,97644.84
2019-03-20T10:34:03.794Z,97646.20
2019-03-20T10:36:31.089Z,97651.30
2019-03-20T10:39:06.426Z,97640.00
2019-03-20T10:41:27.252Z,97648.63
2019-03-20T10:43:55.309Z,97649.09
2019-03-20T10:46:22.588Z,97646.31
2019-03-20T10:48:49.708Z,97645.03
2019-03-20T10:51:16.813Z,97650.67
2019-03-20T10:53:44.180Z,97654.13
2019-03-20T10:56:11.638Z,97645.06
2019-03-20T10:58:39.138Z,97646.23
2019-03-20T11:01:06.552Z,97653.03
2019-03-20T11:03:33.810Z,97646.64
2019-03-20T11:06:01.274Z,97645.37
2019-03-20T11:08:28.351Z,97654.25
2019-03-20T11:10:55.831Z,97651.53
2019-03-20T11:13:22.907Z,97650.77
2019-03-20T11:15:50.277Z,97656.02
2019-03-20T11:18:17.631Z,97644.67
2019-03-20T11:20:44.725Z,97651.90
2019-03-20T11:23:12.056Z,97653.30
2019-03-20T11:25:39.145Z,97649.71
2019-03-20T11:28:06.536Z,97644.42
2019-03-20T11:30:33.995Z,97639.45
2019-03-20T11:33:01.349Z,97641.56
2019-03-20T11:35:28.812Z,97641.00
2019-03-20T11:37:55.890Z,97636.17
2019-03-20T11:40:23.317Z,97637.06
2019-03-20T11:42:50.389Z,97634.95
2019-03-20T11:45:17.825Z,97633.94
2019-03-20T11:47:45.279Z,97631.05
2019-03-20T11:50:12.363Z,97633.26
2019-03-20T11:52:39.442Z,97626.95
2019-03-20T11:55:06.541Z,97618.88
2019-03-20T11:57:33.985Z,97620.23
2019-03-20T12:00:01.437Z,97619.35
2019-03-20T12:02:29.896Z,97615.59
2019-03-20T12:04:57.278Z,97604.02
2019-03-20T12:07:24.470Z,97609.77
2019-03-20T12:09:51.558Z,97595.37
2019-03-20T12:12:18.635Z,97592.88
2019-03-20T12:14:46.080Z,97590.95
2019-03-20T12:17:13.157Z,97588.84
2019-03-20T12:19:44.923Z,97597.09
2019-03-20T12:22:09.386Z,97594.75
2019-03-20T12:24:36.834Z,97589.61
2019-03-20T12:27:14.517Z,97590.66
2019-03-20T12:29:33.387Z,97587.27
2019-03-20T12:32:00.478Z,97586.34
2019-03-20T12:34:28.624Z,97581.29
2019-03-20T12:36:56.745Z,97572.27
2019-03-20T12:39:23.836Z,97580.47
2019-03-20T12:41:51.291Z,97571.86
2019-03-20T12:44:18.374Z,97574.47
2019-03-20T12:46:45.538Z,97577.78
2019-03-20T12:49:12.951Z,97570.48
2019-03-20T12:51:40.032Z,97567.84
2019-03-20T12:54:07.118Z,97558.45
2019-03-20T12:56:34.229Z,97563.56
2019-03-20T12:59:01.285Z,97558.60
2019-03-20T13:01:28.383Z,97560.33
2019-03-20T13:03:55.741Z,97550.10
2019-03-20T13:06:22.897Z,97556.80
2019-03-20T13:08:50.426Z,97546.25
2019-03-20T13:11:17.469Z,97549.12
2019-03-20T13:13:44.856Z,97552.14
2019-03-20T13:16:13.019Z,97539.45
2019-03-20T13:18:40.107Z,97547.96
2019-03-20T13:21:07.537Z,97543.46
2019-03-20T13:23:34.995Z,97537.42
2019-03-20T13:26:02.090Z,97537.61
2019-03-20T13:28:29.167Z,97536.44
2019-03-20T13:30:56.263Z,97540.11
2019-03-20T13:33:25.991Z,97540.62
2019-03-20T13:35:53.040Z,97531.95
2019-03-20T13:38:20.125Z,97529.29
2019-03-20T13:40:47.503Z,97538.63
2019-03-20T13:43:14.689Z,97543.58
2019-03-20T13:45:42.109Z,97548.61
2019-03-20T13:48:09.467Z,97545.36
2019-03-20T13:50:36.924Z,97540.52
2019-03-20T13:53:04.010Z,97535.16
2019-03-20T13:55:31.097Z,97538.27
2019-03-20T13:57:58.478Z,97538.94
2019-03-20T14:00:25.555Z,97534.81
2019-03-20T14:02:53.016Z,97537.70
2019-03-20T14:05:20.165Z,97529.78
2019-03-20T14:07:47.515Z,97533.14
2019-03-20T14:10:24.541Z,97534.96
2019-03-20T14:12:43.733Z,97527.55
2019-03-20T14:15:10.809Z,97526.51
2019-03-20T14:17:38.246Z,97528.67
2019-03-20T14:20:05.326Z,97525.44
2019-03-20T14:22:32.411Z,97523.49
2019-03-20T14:24:59.492Z,97523.06
2019-03-20T14:27:26.575Z,97521.68
2019-03-20T14:29:53.650Z,97527.34
2019-03-20T14:32:21.703Z,97525.41
2019-03-20T14:34:48.781Z,97524.69
2019-03-20T14:37:16.132Z,97521.38
2019-03-20T14:39:43.518Z,97515.85
2019-03-20T14:42:10.972Z,97519.03
2019-03-20T14:44:38.428Z,97517.33
2019-03-20T14:47:05.885Z,97525.27
2019-03-20T14:49:32.956Z,97517.47
2019-03-20T14:52:00.328Z,97519.73
2019-03-20T14:54:27.748Z,97516.47
2019-03-20T14:56:54.836Z,97512.59
2019-03-20T14:59:22.252Z,97513.24
2019-03-20T15:01:49.344Z,97512.24
2019-03-20T15:04:16.416Z,97503.49
2019-03-20T15:06:43.502Z,97508.77
2019-03-20T15:09:10.574Z,97503.45
2019-03-20T15:11:38.032Z,97500.92
2019-03-20T15:14:05.489Z,97507.19
2019-03-20T15:16:33.940Z,97496.09
2019-03-20T15:19:01.333Z,97501.84
2019-03-20T15:21:28.505Z,97505.14
2019-03-20T15:23:55.909Z,97505.22
2019-03-20T15:26:23.101Z,97508.22
2019-03-20T15:28:50.157Z,97503.39
2019-03-20T15:31:17.592Z,97501.64
2019-03-20T15:33:44.687Z,97496.77
2019-03-20T15:36:12.092Z,97500.59
2019-03-20T15:38:39.527Z,97503.81
2019-03-20T15:41:06.596Z,97501.80
2019-03-20T15:43:34.056Z,97509.98
2019-03-20T15:46:01.131Z,97513.78
2019-03-20T15:48:29.192Z,97513.42
2019-03-20T15:50:56.611Z,97519.98
2019-03-20T15:53:24.065Z,97517.63
2019-03-20T15:55:51.422Z,97517.41
2019-03-20T15:58:18.503Z,97513.27
2019-03-20T16:00:45.927Z,97515.66
2019-03-20T16:03:13.389Z,97516.48
2019-03-20T16:05:40.736Z,97521.13
2019-03-20T16:08:08.092Z,97525.91
2019-03-20T16:10:35.448Z,97521.77
2019-03-20T16:13:02.932Z,97529.41
2019-03-20T16:15:30.265Z,97528.10
2019-03-20T16:17:57.357Z,97535.83
2019-03-20T16:20:24.765Z,97535.12
2019-03-20T16:22:52.219Z,97545.94
2019-03-20T16:25:19.296Z,97547.63
2019-03-20T16:27:46.402Z,97544.44
2019-03-20T16:32:44.032Z,97539.61
2019-03-20T16:35:15.874Z,97541.04
2019-03-20T16:37:43.258Z,97550.31
2019-03-20T16:40:10.612Z,97552.58
2019-03-20T16:42:37.742Z,97553.30
2019-03-20T16:45:04.953Z,97547.63
2019-03-20T16:47:32.057Z,97553.20
2019-03-20T16:49:59.151Z,97554.87
2019-03-20T16:52:26.298Z,97558.07
2019-03-20T16:54:53.385Z,97556.07
2019-03-20T16:57:21.859Z,97559.06
2019-03-20T16:59:49.061Z,97557.17
2019-03-20T17:02:16.153Z,97556.50
2019-03-20T17:07:12.360Z,97561.23
2019-03-20T17:09:53.624Z,97562.66
2019-03-20T17:14:59.217Z,97566.31
2019-03-20T17:17:30.752Z,97571.49
2019-03-20T17:19:58.102Z,97568.27
2019-03-20T17:22:29.410Z,97572.38
2019-03-20T17:30:27.885Z,97582.83
2019-03-20T17:32:59.566Z,97579.81
2019-03-20T17:38:15.788Z,97584.42
2019-03-20T17:40:55.508Z,97584.16
2019-03-20T17:46:06.753Z,97573.98
2019-03-20T17:48:33.898Z,97583.86
2019-03-20T17:51:00.992Z,97578.13
2019-03-20T17:53:28.233Z,97573.25
2019-03-20T17:58:38.776Z,97575.08
2019-03-20T18:01:11.024Z,97569.87
2019-03-20T18:03:40.484Z,97572.33
2019-03-20T18:06:07.805Z,97576.33
2019-03-20T18:08:50.247Z,97577.73
2019-03-20T18:11:29.439Z,97573.94
2019-03-20T18:16:48.624Z,97583.39
2019-03-20T18:19:29.229Z,97588.58
2019-03-20T18:21:58.791Z,97589.73
2019-03-20T18:27:17.276Z,97596.95
2019-03-20T18:29:46.888Z,97595.13
2019-03-20T18:32:14.202Z,97590.20
2019-03-20T18:34:50.698Z,97600.73
2019-03-20T18:37:18.049Z,97612.52
2019-03-20T18:39:54.423Z,97612.62
2019-03-20T18:42:25.056Z,97620.98
2019-03-20T18:44:59.284Z,97624.83
2019-03-20T18:47:26.620Z,97628.67
2019-03-20T18:49:54.755Z,97624.62
2019-03-20T18:54:56.362Z,97624.92
2019-03-20T18:57:24.943Z,97623.72
2019-03-20T19:02:26.235Z,97620.97
2019-03-20T19:04:55.442Z,97618.17
2019-03-20T19:07:26.788Z,97617.28
2019-03-20T19:09:54.065Z,97617.59
2019-03-20T19:12:34.412Z,97619.06
2019-03-20T19:15:01.734Z,97619.47
2019-03-20T19:17:32.061Z,97627.19
2019-03-20T19:20:00.128Z,97635.53
2019-03-20T19:22:35.616Z,97633.44
2019-03-20T19:25:03.872Z,97635.43
2019-03-20T19:30:19.154Z,97639.97
2019-03-20T19:32:54.377Z,97634.88
2019-03-20T19:35:21.646Z,97635.12
2019-03-20T19:38:00.295Z,97636.31
2019-03-20T19:40:32.551Z,97637.25
2019-03-20T19:43:16.433Z,97635.25
2019-03-20T19:45:45.761Z,97634.32
2019-03-20T19:48:22.031Z,97639.60
2019-03-20T19:50:50.333Z,97639.16
2019-03-20T19:56:21.773Z,97635.08
2019-03-20T19:59:04.485Z,97640.01
2019-03-20T20:01:32.722Z,97640.74
2019-03-20T20:04:12.818Z,97638.52
2019-03-20T20:06:42.217Z,97645.00
2019-03-20T20:09:19.799Z,97652.05
2019-03-20T20:14:24.068Z,97648.06
2019-03-20T20:16:55.421Z,97651.80
2019-03-20T20:19:34.074Z,97645.87
2019-03-20T20:22:06.615Z,97642.08
2019-03-20T20:24:34.773Z,97640.53
2019-03-20T20:29:35.037Z,97651.05
2019-03-20T20:32:02.542Z,97647.50
2019-03-20T20:34:29.771Z,97647.77
2019-03-20T20:37:02.213Z,97646.19
2019-03-20T20:39:33.546Z,97653.48
2019-03-20T20:42:02.761Z,97644.03
2019-03-20T20:44:35.289Z,97645.33
2019-03-20T20:49:58.827Z,97646.81
2019-03-20T20:52:25.881Z,97650.12
2019-03-20T20:54:54.130Z,97646.61
2019-03-20T20:57:21.398Z,97649.48
2019-03-20T20:59:49.330Z,97641.73
2019-03-20T21:04:51.763Z,97652.30
2019-03-20T21:07:19.044Z,97649.44
2019-03-20T21:09:58.735Z,97654.24
2019-03-20T21:12:26.016Z,97661.87
2019-03-20T21:15:03.446Z,97662.38
2019-03-20T21:17:35.934Z,97668.30
2019-03-20T21:20:03.816Z,97668.03
2019-03-20T21:22:35.621Z,97666.81
2019-03-20T21:30:36.279Z,97664.09
2019-03-20T21:33:03.539Z,97658.46
2019-03-20T21:35:49.694Z,97663.73
2019-03-20T21:46:30.137Z,97668.61
2019-03-20T21:48:57.461Z,97667.64
2019-03-20T21:51:24.904Z,97664.56
2019-03-20T21:53:54.376Z,97663.53
2019-03-20T21:56:21.611Z,97669.87
2019-03-20T21:58:49.225Z,97668.37
2019-03-20T22:01:16.917Z,97666.07
2019-03-20T22:03:44.042Z,97665.58
2019-03-20T22:06:13.030Z,97667.95
2019-03-20T22:08:45.040Z,97666.53
2019-03-20T22:11:12.966Z,97673.16
2019-03-20T22:13:42.573Z,97665.95
2019-03-20T22:16:10.573Z,97662.88
2019-03-20T22:18:37.899Z,97664.33
2019-03-20T22:21:10.393Z,97669.12
2019-03-20T22:23:37.929Z,97670.86
2019-03-20T22:26:17.984Z,97670.36
2019-03-20T22:28:45.338Z,97675.47
2019-03-20T22:31:12.376Z,97671.98
2019-03-20T22:33:39.591Z,97673.38
2019-03-20T22:36:06.890Z,97678.02
2019-03-20T22:38:34.251Z,97678.34
2019-03-20T22:41:11.555Z,97678.05
2019-03-20T22:43:38.892Z,97680.86
2019-03-20T22:46:06.247Z,97681.47
2019-03-20T22:48:33.298Z,97681.09
2019-03-20T22:51:00.669Z,97678.97
2019-03-20T22:53:29.900Z,97674.65
2019-03-20T22:55:56.933Z,97675.33
2019-03-20T22:58:24.252Z,97677.07
2019-03-20T23:00:51.626Z,97671.00
2019-03-20T23:03:20.598Z,97671.59
2019-03-20T23:05:47.704Z,97669.69
2019-03-20T23:08:18.539Z,97668.16
2019-03-20T23:10:45.947Z,97663.38
2019-03-20T23:13:18.801Z,97656.62
2019-03-20T23:15:42.338Z,97661.12
2019-03-20T23:18:09.586Z,97656.11
2019-03-20T23:20:36.897Z,97661.89
2019-03-20T23:23:04.253Z,97662.50
2019-03-20T23:25:31.730Z,97656.83
2019-03-20T23:27:59.847Z,97653.30
2019-03-20T23:30:26.885Z,97652.78
2019-03-20T23:32:54.305Z,97646.11
2019-03-20T23:35:21.416Z,97647.26
2019-03-20T23:37:48.624Z,97642.48
2019-03-20T23:40:15.946Z,97641.96
2019-03-20T23:42:43.521Z,97638.48
2019-03-20T23:45:10.885Z,97640.06
2019-03-20T23:47:39.095Z,97637.60
2019-03-20T23:50:06.383Z,97640.17
2019-03-20T23:52:33.669Z,97641.45
2019-03-20T23:55:01.000Z,97637.73
2019-03-20T23:57:28.563Z,97636.81
2019-03-20T23:59:55.606Z,97635.73
